createdAt,value
2018-08-28T00:01:40.211Z,19.00
2018-08-28T00:04:07.740Z,19.00
2018-08-28T00:06:35.374Z,19.00
2018-08-28T00:09:03.332Z,19.00
2018-08-28T00:11:30.892Z,19.00
2018-08-28T00:13:58.505Z,19.00
2018-08-28T00:16:26.092Z,19.00
2018-08-28T00:18:53.624Z,18.90
2018-08-28T00:21:21.196Z,18.90
2018-08-28T00:23:48.767Z,18.90
2018-08-28T00:26:16.334Z,18.90
2018-08-28T00:28:43.857Z,18.90
2018-08-28T00:31:11.426Z,18.80
2018-08-28T00:33:39.018Z,18.80
2018-08-28T00:36:06.600Z,18.80
2018-08-28T00:38:34.104Z,18.80
2018-08-28T00:41:01.732Z,18.80
2018-08-28T00:43:29.270Z,18.80
2018-08-28T00:45:56.876Z,18.80
2018-08-28T00:48:24.382Z,18.80
2018-08-28T00:50:51.940Z,18.70
2018-08-28T00:53:19.458Z,18.80
2018-08-28T00:55:47.008Z,18.70
2018-08-28T00:58:14.548Z,18.70
2018-08-28T01:00:42.093Z,18.70
2018-08-28T01:03:09.622Z,18.60
2018-08-28T01:05:37.145Z,18.60
2018-08-28T01:08:04.801Z,18.60
2018-08-28T01:10:32.515Z,18.50
2018-08-28T01:13:00.030Z,18.50
2018-08-28T01:15:27.538Z,18.50
2018-08-28T01:17:55.069Z,18.50
2018-08-28T01:20:22.603Z,18.50
2018-08-28T01:22:50.141Z,18.50
2018-08-28T01:25:17.677Z,18.40
2018-08-28T01:27:45.221Z,18.40
2018-08-28T01:30:12.769Z,18.40
2018-08-28T01:32:40.345Z,18.40
2018-08-28T01:35:07.923Z,18.40
2018-08-28T01:37:35.449Z,18.30
2018-08-28T01:40:03.110Z,18.30
2018-08-28T01:42:30.643Z,18.30
2018-08-28T01:44:58.207Z,18.30
2018-08-28T01:47:25.793Z,18.30
2018-08-28T01:49:53.327Z,18.30
2018-08-28T01:52:21.091Z,18.20
2018-08-28T01:54:48.801Z,18.30
2018-08-28T01:57:16.307Z,18.20
2018-08-28T01:59:43.899Z,18.20
2018-08-28T02:02:11.403Z,18.30
2018-08-28T02:04:39.339Z,18.20
2018-08-28T02:07:06.912Z,18.20
2018-08-28T02:09:34.450Z,18.10
2018-08-28T02:12:01.980Z,18.10
2018-08-28T02:14:29.539Z,18.10
2018-08-28T02:16:57.077Z,18.00
2018-08-28T02:19:24.618Z,18.00
2018-08-28T02:21:52.160Z,17.90
2018-08-28T02:24:19.712Z,17.90
2018-08-28T02:26:47.322Z,17.80
2018-08-28T02:29:14.846Z,17.80
2018-08-28T02:31:42.361Z,17.80
2018-08-28T02:34:10.231Z,17.80
2018-08-28T02:36:38.025Z,17.70
2018-08-28T02:39:08.180Z,17.70
2018-08-28T02:41:35.738Z,17.70
2018-08-28T02:44:03.290Z,17.70
2018-08-28T02:46:30.788Z,17.60
2018-08-28T02:48:58.322Z,17.50
2018-08-28T02:51:25.870Z,17.50
2018-08-28T02:53:53.398Z,17.60
2018-08-28T02:56:21.068Z,17.50
2018-08-28T02:58:48.499Z,17.50
2018-08-28T03:01:16.019Z,17.50
2018-08-28T03:03:43.554Z,17.40
2018-08-28T03:06:11.258Z,17.40
2018-08-28T03:08:38.796Z,17.40
2018-08-28T03:11:06.379Z,17.30
2018-08-28T03:13:33.990Z,17.30
2018-08-28T03:16:01.660Z,17.30
2018-08-28T03:18:29.299Z,17.30
2018-08-28T03:20:56.856Z,17.30
2018-08-28T03:23:24.374Z,17.30
2018-08-28T03:25:51.924Z,17.20
2018-08-28T03:28:19.433Z,17.20
2018-08-28T03:30:47.015Z,17.20
2018-08-28T03:33:14.541Z,17.20
2018-08-28T03:35:42.077Z,17.10
2018-08-28T03:38:09.637Z,17.10
2018-08-28T03:40:37.192Z,17.00
2018-08-28T03:43:04.797Z,16.90
2018-08-28T03:45:32.341Z,16.90
2018-08-28T03:47:59.889Z,16.90
2018-08-28T03:50:27.479Z,16.80
2018-08-28T03:52:55.080Z,16.80
2018-08-28T03:55:22.617Z,16.70
2018-08-28T03:57:50.143Z,16.70
2018-08-28T04:00:17.662Z,16.60
2018-08-28T04:02:45.214Z,16.60
2018-08-28T04:05:12.757Z,16.60
2018-08-28T04:07:40.403Z,16.50
2018-08-28T04:10:08.009Z,16.50
2018-08-28T04:12:35.577Z,16.50
2018-08-28T04:15:03.151Z,16.40
2018-08-28T04:17:35.343Z,16.40
2018-08-28T04:20:02.981Z,16.40
2018-08-28T04:22:30.567Z,16.30
2018-08-28T04:24:58.128Z,16.30
2018-08-28T04:27:25.684Z,16.30
2018-08-28T04:29:53.308Z,16.30
2018-08-28T04:32:21.358Z,16.20
2018-08-28T04:34:48.949Z,16.20
2018-08-28T04:37:16.463Z,16.30
2018-08-28T04:39:44.046Z,16.20
2018-08-28T04:42:11.687Z,16.30
2018-08-28T04:44:39.253Z,16.30
2018-08-28T04:47:06.917Z,16.30
2018-08-28T04:49:34.472Z,16.20
2018-08-28T04:52:01.992Z,16.20
2018-08-28T04:54:29.542Z,16.20
2018-08-28T04:56:57.081Z,16.20
2018-08-28T04:59:24.626Z,16.20
2018-08-28T05:01:52.213Z,16.20
2018-08-28T05:04:19.760Z,16.20
2018-08-28T05:06:47.305Z,16.20
2018-08-28T05:09:14.891Z,16.30
2018-08-28T05:11:42.435Z,16.40
2018-08-28T05:14:10.046Z,16.50
2018-08-28T05:16:37.585Z,16.60
2018-08-28T05:19:05.508Z,16.70
2018-08-28T05:21:33.099Z,16.70
2018-08-28T05:24:00.653Z,16.80
2018-08-28T05:26:28.183Z,16.90
2018-08-28T05:28:55.735Z,17.00
2018-08-28T05:31:23.280Z,17.00
2018-08-28T05:33:50.833Z,17.00
2018-08-28T05:36:18.369Z,17.10
2018-08-28T05:38:45.944Z,17.10
2018-08-28T05:41:13.523Z,17.20
2018-08-28T05:43:41.106Z,17.30
2018-08-28T05:46:08.721Z,17.40
2018-08-28T05:48:36.270Z,17.40
2018-08-28T05:51:03.873Z,17.50
2018-08-28T05:53:31.427Z,17.50
2018-08-28T05:55:59.042Z,17.50
2018-08-28T05:58:26.601Z,17.60
2018-08-28T06:00:54.148Z,17.60
2018-08-28T06:03:21.849Z,17.70
2018-08-28T06:05:49.358Z,17.80
2018-08-28T06:08:16.933Z,17.90
2018-08-28T06:10:44.582Z,18.00
2018-08-28T06:13:12.146Z,18.10
2018-08-28T06:15:39.742Z,18.10
2018-08-28T06:18:07.303Z,18.30
2018-08-28T06:20:34.865Z,18.30
2018-08-28T06:23:02.567Z,18.40
2018-08-28T06:25:30.102Z,18.50
2018-08-28T06:27:57.654Z,18.60
2018-08-28T06:30:25.186Z,18.70
2018-08-28T06:32:52.864Z,18.80
2018-08-28T06:35:20.516Z,18.90
2018-08-28T06:37:48.110Z,18.90
2018-08-28T06:40:15.675Z,19.00
2018-08-28T06:42:43.225Z,19.10
2018-08-28T06:45:10.778Z,19.10
2018-08-28T06:47:38.348Z,19.10
2018-08-28T06:50:06.806Z,19.10
2018-08-28T06:52:34.364Z,19.10
2018-08-28T06:55:01.977Z,19.10
2018-08-28T06:57:29.664Z,19.10
2018-08-28T06:59:57.331Z,19.10
2018-08-28T07:02:25.006Z,19.10
2018-08-28T07:04:52.490Z,19.10
2018-08-28T07:07:20.142Z,19.20
2018-08-28T07:09:47.713Z,19.20
2018-08-28T07:12:15.262Z,19.20
2018-08-28T07:14:42.821Z,19.30
2018-08-28T07:17:10.376Z,19.40
2018-08-28T07:19:37.917Z,19.40
2018-08-28T07:22:05.539Z,19.40
2018-08-28T07:24:33.109Z,19.40
2018-08-28T07:27:00.663Z,19.50
2018-08-28T07:29:28.250Z,19.50
2018-08-28T07:31:55.813Z,19.60
2018-08-28T07:34:23.309Z,19.60
2018-08-28T07:36:50.835Z,19.70
2018-08-28T07:39:18.415Z,19.80
2018-08-28T07:41:45.925Z,19.90
2018-08-28T07:44:13.459Z,20.00
2018-08-28T07:46:41.024Z,20.10
2018-08-28T07:49:08.553Z,20.20
2018-08-28T07:51:36.163Z,20.30
2018-08-28T07:54:03.770Z,20.40
2018-08-28T07:56:31.297Z,20.50
2018-08-28T07:58:58.870Z,20.50
2018-08-28T08:01:26.427Z,20.60
2018-08-28T08:03:54.012Z,20.60
2018-08-28T08:06:21.585Z,20.70
2018-08-28T08:08:49.119Z,20.70
2018-08-28T08:11:16.661Z,20.70
2018-08-28T08:13:44.223Z,20.80
2018-08-28T08:16:11.844Z,20.90
2018-08-28T08:18:39.379Z,20.90
2018-08-28T08:21:07.043Z,20.90
2018-08-28T08:23:34.571Z,21.00
2018-08-28T08:26:02.148Z,21.00
2018-08-28T08:28:29.653Z,21.10
2018-08-28T08:30:57.255Z,21.20
2018-08-28T08:33:24.845Z,21.30
2018-08-28T08:35:52.454Z,21.30
2018-08-28T08:38:20.057Z,21.30
2018-08-28T08:40:47.596Z,21.40
2018-08-28T08:43:15.120Z,21.40
2018-08-28T08:45:42.665Z,21.50
2018-08-28T08:48:10.188Z,21.60
2018-08-28T08:50:37.749Z,21.70
2018-08-28T08:53:05.350Z,21.80
2018-08-28T08:55:32.916Z,21.80
2018-08-28T08:58:00.459Z,21.90
2018-08-28T09:00:28.030Z,22.10
2018-08-28T09:02:55.573Z,22.20
2018-08-28T09:05:23.136Z,22.20
2018-08-28T09:07:50.698Z,22.20
2018-08-28T09:10:18.240Z,22.20
2018-08-28T09:12:45.820Z,22.20
2018-08-28T09:15:13.358Z,22.20
2018-08-28T09:17:40.918Z,22.30
2018-08-28T09:20:08.552Z,22.40
2018-08-28T09:22:36.177Z,22.50
2018-08-28T09:25:03.760Z,22.60
2018-08-28T09:27:31.327Z,22.80
2018-08-28T09:29:58.973Z,22.90
2018-08-28T09:32:26.683Z,23.10
2018-08-28T09:34:54.110Z,23.20
2018-08-28T09:37:21.642Z,23.20
2018-08-28T09:39:49.209Z,23.20
2018-08-28T09:42:16.743Z,23.20
2018-08-28T09:44:44.316Z,23.30
2018-08-28T09:47:11.937Z,23.50
2018-08-28T09:49:39.483Z,23.50
2018-08-28T09:52:07.071Z,23.70
2018-08-28T09:54:34.618Z,23.80
2018-08-28T09:57:02.196Z,24.00
2018-08-28T09:59:29.730Z,24.20
2018-08-28T10:01:57.310Z,24.20
2018-08-28T10:04:24.962Z,24.20
2018-08-28T10:06:52.530Z,24.30
2018-08-28T10:09:20.052Z,24.40
2018-08-28T10:11:47.615Z,24.50
2018-08-28T10:14:15.166Z,24.70
2018-08-28T10:16:42.695Z,24.80
2018-08-28T10:19:10.232Z,24.90
2018-08-28T10:21:38.107Z,25.00
2018-08-28T10:24:05.881Z,25.20
2018-08-28T10:26:33.465Z,25.50
2018-08-28T10:29:01.050Z,25.90
2018-08-28T10:31:28.807Z,26.10
2018-08-28T10:33:56.477Z,26.50
2018-08-28T10:36:24.052Z,26.60
2018-08-28T10:38:51.670Z,26.70
2018-08-28T10:41:19.215Z,27.00
2018-08-28T10:43:46.845Z,27.10
2018-08-28T10:46:14.468Z,27.30
2018-08-28T10:48:42.023Z,27.60
2018-08-28T10:51:09.560Z,27.90
2018-08-28T10:53:37.122Z,28.30
2018-08-28T10:56:04.847Z,28.60
2018-08-28T10:58:32.550Z,28.80
2018-08-28T11:01:00.071Z,29.10
2018-08-28T11:03:27.666Z,29.30
2018-08-28T11:05:55.242Z,29.60
2018-08-28T11:08:22.794Z,29.80
2018-08-28T11:10:50.303Z,30.00
2018-08-28T11:13:17.864Z,30.20
2018-08-28T11:15:45.463Z,30.30
2018-08-28T11:18:13.010Z,30.40
2018-08-28T11:20:40.594Z,30.40
2018-08-28T11:23:08.920Z,30.50
2018-08-28T11:25:36.491Z,30.60
2018-08-28T11:28:04.056Z,30.70
2018-08-28T11:30:31.990Z,30.80
2018-08-28T11:32:59.607Z,30.80
2018-08-28T11:35:27.176Z,30.90
2018-08-28T11:37:54.750Z,31.20
2018-08-28T11:40:22.318Z,31.30
2018-08-28T11:42:49.912Z,31.30
2018-08-28T11:45:17.520Z,31.10
2018-08-28T11:47:45.039Z,31.10
2018-08-28T11:50:12.648Z,31.20
2018-08-28T11:52:40.253Z,31.40
2018-08-28T11:55:07.874Z,31.60
2018-08-28T11:57:35.431Z,31.60
2018-08-28T12:00:03.248Z,31.20
2018-08-28T12:02:30.796Z,30.90
2018-08-28T12:04:58.422Z,31.10
2018-08-28T12:07:26.022Z,31.60
2018-08-28T12:09:53.571Z,32.00
2018-08-28T12:12:21.269Z,31.90
2018-08-28T12:14:48.806Z,31.60
2018-08-28T12:17:16.369Z,31.50
2018-08-28T12:19:43.938Z,31.50
2018-08-28T12:22:11.838Z,31.50
2018-08-28T12:24:39.460Z,31.70
2018-08-28T12:27:07.044Z,31.70
2018-08-28T12:29:34.625Z,31.30
2018-08-28T12:32:02.278Z,31.00
2018-08-28T12:34:29.834Z,30.70
2018-08-28T12:36:57.473Z,30.70
2018-08-28T12:39:24.938Z,30.90
2018-08-28T12:41:52.472Z,31.20
2018-08-28T12:44:20.054Z,31.50
2018-08-28T12:46:47.615Z,31.70
2018-08-28T12:49:15.182Z,32.10
2018-08-28T12:51:42.798Z,32.50
2018-08-28T12:54:10.311Z,32.90
2018-08-28T12:56:37.894Z,33.20
2018-08-28T12:59:05.507Z,33.20
2018-08-28T13:01:33.069Z,33.30
2018-08-28T13:04:00.783Z,33.50
2018-08-28T13:06:28.557Z,33.60
2018-08-28T13:08:56.533Z,33.30
2018-08-28T13:11:24.465Z,33.20
2018-08-28T13:13:52.021Z,33.20
2018-08-28T13:16:19.579Z,33.10
2018-08-28T13:18:47.104Z,32.90
2018-08-28T13:21:14.651Z,32.80
2018-08-28T13:23:42.256Z,32.90
2018-08-28T13:26:10.050Z,33.10
2018-08-28T13:28:37.492Z,33.20
2018-08-28T13:31:05.217Z,33.50
2018-08-28T13:33:32.786Z,33.60
2018-08-28T13:36:00.343Z,33.70
2018-08-28T13:38:27.926Z,34.10
2018-08-28T13:40:55.489Z,34.30
2018-08-28T13:43:23.098Z,34.70
2018-08-28T13:45:50.664Z,34.90
2018-08-28T13:48:18.320Z,35.10
2018-08-28T13:50:45.873Z,35.10
2018-08-28T13:53:13.390Z,35.20
2018-08-28T13:55:41.040Z,35.20
2018-08-28T13:58:08.634Z,34.90
2018-08-28T14:00:36.167Z,34.60
2018-08-28T14:03:03.750Z,34.50
2018-08-28T14:05:31.385Z,34.50
2018-08-28T14:07:58.922Z,34.70
2018-08-28T14:10:26.524Z,34.80
2018-08-28T14:12:54.090Z,34.90
2018-08-28T14:15:21.651Z,35.00
2018-08-28T14:17:49.208Z,34.80
2018-08-28T14:20:16.749Z,34.30
2018-08-28T14:22:44.413Z,33.90
2018-08-28T14:25:11.913Z,33.80
2018-08-28T14:27:39.524Z,33.90
2018-08-28T14:30:07.176Z,34.00
2018-08-28T14:32:34.704Z,34.00
2018-08-28T14:35:02.290Z,34.00
2018-08-28T14:37:29.824Z,34.20
2018-08-28T14:39:57.390Z,34.30
2018-08-28T14:42:24.985Z,34.40
2018-08-28T14:44:52.588Z,34.60
2018-08-28T14:47:20.210Z,34.60
2018-08-28T14:49:47.901Z,34.60
2018-08-28T14:52:15.324Z,34.60
2018-08-28T14:54:42.923Z,34.70
2018-08-28T14:57:10.443Z,34.60
2018-08-28T14:59:38.057Z,34.40
2018-08-28T15:02:05.663Z,34.10
2018-08-28T15:04:33.256Z,33.60
2018-08-28T15:07:00.870Z,32.80
2018-08-28T15:09:28.410Z,32.30
2018-08-28T15:11:55.957Z,31.60
2018-08-28T15:14:23.493Z,31.00
2018-08-28T15:16:51.080Z,30.60
2018-08-28T15:19:18.690Z,30.20
2018-08-28T15:21:46.298Z,29.90
2018-08-28T15:24:13.798Z,29.80
2018-08-28T15:26:41.424Z,29.60
2018-08-28T15:29:08.980Z,29.50
2018-08-28T15:31:36.548Z,29.60
2018-08-28T15:34:04.140Z,29.80
2018-08-28T15:36:31.718Z,30.10
2018-08-28T15:38:59.330Z,30.50
2018-08-28T15:41:26.884Z,30.70
2018-08-28T15:43:54.463Z,30.60
2018-08-28T15:46:22.014Z,30.20
2018-08-28T15:48:49.600Z,30.10
2018-08-28T15:51:17.205Z,30.10
2018-08-28T15:53:44.742Z,30.20
2018-08-28T15:56:12.304Z,30.40
2018-08-28T15:58:39.896Z,30.50
2018-08-28T16:01:07.492Z,30.70
2018-08-28T16:03:35.019Z,30.90
2018-08-28T16:06:02.572Z,31.00
2018-08-28T16:08:30.122Z,31.10
2018-08-28T16:10:57.744Z,31.10
2018-08-28T16:13:25.310Z,31.20
2018-08-28T16:15:52.961Z,31.30
2018-08-28T16:18:20.556Z,31.20
2018-08-28T16:20:48.108Z,31.30
2018-08-28T16:23:21.322Z,31.20
2018-08-28T16:25:48.947Z,31.10
2018-08-28T16:28:16.530Z,31.10
2018-08-28T16:30:44.137Z,31.00
2018-08-28T16:33:11.714Z,31.00
2018-08-28T16:35:39.434Z,30.80
2018-08-28T16:38:07.046Z,30.70
2018-08-28T16:40:34.596Z,30.60
2018-08-28T16:43:02.250Z,30.40
2018-08-28T16:45:29.912Z,30.30
2018-08-28T16:47:57.468Z,30.10
2018-08-28T16:50:25.010Z,29.90
2018-08-28T16:52:52.572Z,29.60
2018-08-28T16:55:20.098Z,29.20
2018-08-28T16:57:47.660Z,28.70
2018-08-28T17:00:15.234Z,28.20
2018-08-28T17:02:42.828Z,27.70
2018-08-28T17:05:10.434Z,27.40
2018-08-28T17:07:38.310Z,27.00
2018-08-28T17:10:06.020Z,26.70
2018-08-28T17:12:33.601Z,26.40
2018-08-28T17:15:01.274Z,26.20
2018-08-28T17:17:28.742Z,26.10
2018-08-28T17:19:56.336Z,26.10
2018-08-28T17:22:23.883Z,26.00
2018-08-28T17:24:51.482Z,25.80
2018-08-28T17:27:19.097Z,25.70
2018-08-28T17:29:46.714Z,25.50
2018-08-28T17:32:14.299Z,25.40
2018-08-28T17:34:41.965Z,25.30
2018-08-28T17:37:09.655Z,25.20
2018-08-28T17:39:37.269Z,25.00
2018-08-28T17:42:04.978Z,24.80
2018-08-28T17:44:32.591Z,24.60
2018-08-28T17:47:00.245Z,24.50
2018-08-28T17:49:27.866Z,24.30
2018-08-28T17:51:55.471Z,24.10
2018-08-28T17:54:23.308Z,24.00
2018-08-28T17:56:50.961Z,23.70
2018-08-28T17:59:18.563Z,23.60
2018-08-28T18:01:46.224Z,23.40
2018-08-28T18:04:13.884Z,23.20
2018-08-28T18:06:41.509Z,23.00
2018-08-28T18:09:09.721Z,22.90
2018-08-28T18:11:37.399Z,22.70
2018-08-28T18:14:05.021Z,22.60
2018-08-28T18:16:32.811Z,22.40
2018-08-28T18:19:00.562Z,22.30
2018-08-28T18:21:28.308Z,22.20
2018-08-28T18:23:55.902Z,22.10
2018-08-28T18:26:23.628Z,21.90
2018-08-28T18:28:51.254Z,21.70
2018-08-28T18:31:18.881Z,21.60
2018-08-28T18:33:46.509Z,21.50
2018-08-28T18:36:14.121Z,21.40
2018-08-28T18:38:41.775Z,21.30
2018-08-28T18:41:09.588Z,21.20
2018-08-28T18:43:37.087Z,21.10
2018-08-28T18:46:04.778Z,21.00
2018-08-28T18:48:32.508Z,20.90
2018-08-28T18:51:00.119Z,20.80
2018-08-28T18:53:27.961Z,20.70
2018-08-28T18:55:55.770Z,20.60
2018-08-28T18:58:24.408Z,20.60
2018-08-28T19:00:52.900Z,20.50
2018-08-28T19:03:20.592Z,20.40
2018-08-28T19:05:48.894Z,20.30
2018-08-28T19:08:16.585Z,20.20
2018-08-28T19:10:44.320Z,20.10
2018-08-28T19:13:11.993Z,20.10
2018-08-28T19:15:40.064Z,20.10
2018-08-28T19:18:08.066Z,20.00
2018-08-28T19:20:35.885Z,19.90
2018-08-28T19:23:03.559Z,19.80
2018-08-28T19:25:31.219Z,19.70
2018-08-28T19:27:58.924Z,19.60
2018-08-28T19:30:26.620Z,19.60
2018-08-28T19:32:54.277Z,19.50
2018-08-28T19:35:22.019Z,19.40
2018-08-28T19:37:49.946Z,19.40
2018-08-28T19:40:17.661Z,19.30
2018-08-28T19:42:45.432Z,19.20
2018-08-28T19:45:13.120Z,19.20
2018-08-28T19:47:40.775Z,19.10
2018-08-28T19:50:08.545Z,19.10
2018-08-28T19:52:36.224Z,19.00
2018-08-28T19:55:04.087Z,18.90
2018-08-28T19:57:31.772Z,18.90
2018-08-28T19:59:59.510Z,18.80
2018-08-28T20:02:27.353Z,18.80
2018-08-28T20:04:55.021Z,18.70
2018-08-28T20:07:23.042Z,18.70
2018-08-28T20:09:50.999Z,18.60
2018-08-28T20:12:18.667Z,18.50
2018-08-28T20:14:46.349Z,18.50
2018-08-28T20:17:14.014Z,18.40
2018-08-28T20:19:41.636Z,18.40
2018-08-28T20:22:10.440Z,18.30
2018-08-28T20:24:38.096Z,18.30
2018-08-28T20:27:05.931Z,18.20
2018-08-28T20:29:33.592Z,18.20
2018-08-28T20:32:01.268Z,18.10
2018-08-28T20:34:28.952Z,18.10
2018-08-28T20:36:56.603Z,18.00
2018-08-28T20:39:24.239Z,18.00
2018-08-28T20:41:51.927Z,18.00
2018-08-28T20:44:19.494Z,17.90
2018-08-28T20:46:47.163Z,17.90
2018-08-28T20:49:14.736Z,17.80
2018-08-28T20:51:42.333Z,17.80
2018-08-28T20:54:09.945Z,17.80
2018-08-28T20:56:37.871Z,17.70
2018-08-28T20:59:05.718Z,17.60
2018-08-28T21:01:33.405Z,17.60
2018-08-28T21:04:01.043Z,17.50
2018-08-28T21:06:28.750Z,17.50
2018-08-28T21:08:56.335Z,17.50
2018-08-28T21:11:24.010Z,17.50
2018-08-28T21:13:51.621Z,17.40
2018-08-28T21:16:19.214Z,17.40
2018-08-28T21:18:46.823Z,17.30
2018-08-28T21:21:14.464Z,17.30
2018-08-28T21:23:42.064Z,17.30
2018-08-28T21:26:09.694Z,17.20
2018-08-28T21:28:37.264Z,17.20
2018-08-28T21:31:04.860Z,17.10
2018-08-28T21:33:32.440Z,17.10
2018-08-28T21:36:00.008Z,17.00
2018-08-28T21:38:27.554Z,17.00
2018-08-28T21:40:55.105Z,17.00
2018-08-28T21:43:22.617Z,16.90
2018-08-28T21:45:50.207Z,16.90
2018-08-28T21:48:17.792Z,16.90
2018-08-28T21:50:45.353Z,16.80
2018-08-28T21:53:12.889Z,16.80
2018-08-28T21:55:40.481Z,16.80
2018-08-28T21:58:08.057Z,16.80
2018-08-28T22:00:35.623Z,16.70
2018-08-28T22:03:03.235Z,16.70
2018-08-28T22:05:31.530Z,16.70
2018-08-28T22:07:59.089Z,16.70
2018-08-28T22:10:26.877Z,16.70
2018-08-28T22:12:54.475Z,16.60
2018-08-28T22:15:22.052Z,16.70
2018-08-28T22:17:49.616Z,16.70
2018-08-28T22:20:17.197Z,16.60
2018-08-28T22:22:44.770Z,16.60
2018-08-28T22:25:12.324Z,16.60
2018-08-28T22:27:39.905Z,16.60
2018-08-28T22:30:08.132Z,16.60
2018-08-28T22:32:35.661Z,16.50
2018-08-28T22:35:03.202Z,16.50
2018-08-28T22:37:30.803Z,16.50
2018-08-28T22:39:58.340Z,16.50
2018-08-28T22:42:25.897Z,16.50
2018-08-28T22:44:53.421Z,16.40
2018-08-28T22:47:20.961Z,16.40
2018-08-28T22:49:48.505Z,16.40
2018-08-28T22:52:16.087Z,16.40
2018-08-28T22:54:43.679Z,16.40
2018-08-28T22:57:11.191Z,16.30
2018-08-28T22:59:38.754Z,16.20
2018-08-28T23:02:06.295Z,16.20
2018-08-28T23:04:33.873Z,16.20
2018-08-28T23:07:01.454Z,16.10
2018-08-28T23:09:28.997Z,16.10
2018-08-28T23:11:56.520Z,16.10
2018-08-28T23:14:24.048Z,16.00
2018-08-28T23:16:51.618Z,16.00
2018-08-28T23:19:19.171Z,16.00
2018-08-28T23:21:46.918Z,15.90
2018-08-28T23:24:14.455Z,15.90
2018-08-28T23:26:42.014Z,15.90
2018-08-28T23:29:09.569Z,15.90
2018-08-28T23:31:37.081Z,15.80
2018-08-28T23:34:04.599Z,15.80
2018-08-28T23:36:32.134Z,15.80
2018-08-28T23:38:59.687Z,15.70
2018-08-28T23:41:27.249Z,15.80
2018-08-28T23:43:54.841Z,15.80
2018-08-28T23:46:22.382Z,15.70
2018-08-28T23:48:49.954Z,15.70
2018-08-28T23:51:17.549Z,15.70
2018-08-28T23:53:45.103Z,15.70
2018-08-28T23:56:12.647Z,15.70
2018-08-28T23:58:40.257Z,15.60
